Soederarm, Sweden

3:47 PM CET on February 26, 2017 (GMT +0100)
Unnamed Road | | Change Station

Elev 29 ft 59.75 °N, 19.12 °E | Updated 4 minutes ago

Overcast
Overcast
32.7 °F
Feels Like 28 °F
N
5.0
Wind Variable Wind from NNW
Gusts 8.1 mph

Today
High -- | Low -- °F
--% Chance of Precip.
Yesterday
High -- | Low -- °F
Precip. -- in
Pressure 29.39 in
Visibility 6.2 miles
Clouds Overcast 900 ft
Windchill 28 °F
Dew Point 31 °F
Humidity 92%
Rainfall 0.05 in
Snow Depth Not available.
6:48 AM 5:02 PM
Waning Crescent, 0% visible
METAR EFMA 261420Z AUTO 32006KT 280V360 9999 OVC009 01/M01 Q0995
Pressure 29.39 in
Visibility 6.2 miles
Clouds Overcast 900 ft
Windchill 28 °F
Dew Point 31 °F
Humidity 92%
Rainfall 0.05 in
Snow Depth Not available.
6:48 AM 5:02 PM
Waning Crescent, 0% visible
METAR EFMA 261420Z AUTO 32006KT 280V360 9999 OVC009 01/M01 Q0995

Get Your Daily Forecast Email!

Thanks for signing up!

Be on the lookout for a verification email in your inbox.

You'll start receiving the daily forecast at 8 AM.

×

10-Day Weather Forecast

×

Almanac

Astronomy

Feb. 26, 2017 Rise Set
Actual Time
Civil Twilight
Nautical Twilight
Astronomical Twilight
Moon
Length of Visible Light
Length of Day
Tomorrow will be .
, % of the Moon is Illuminated

Today's Extremes

Country Highs Country Lows

Community

WunderPhotos

Upload Photos

1,962,540 photos uploaded!

WunderBlog® & News

Nearby

Air Quality

  Air Quality AQ Index Pollutant
Not available.

Snow Depth

Station Depth Elevation

Earthquake Activity

City Distance Mag. Time & Date
Minimum magnitude displayed is 2.5.

Coastal Water Temperatures

Place Temperature

Stations

Nearby Weather Stations

Station Location Temp. Windchill Dew Point Humidity Wind Precip. Elev Updated Type